sensor_id;sensor_type;location;lat;lon;timestamp;P1;durP1;ratioP1;P2;durP2;ratioP2
52512;SDS011;38422;53.172;6.974;2022-07-04T00:02:24;3.42;;;1.17;;
52512;SDS011;38422;53.172;6.974;2022-07-04T00:04:50;3.05;;;1.10;;
52512;SDS011;38422;53.172;6.974;2022-07-04T00:07:16;4.43;;;1.30;;
52512;SDS011;38422;53.172;6.974;2022-07-04T00:09:41;3.95;;;1.42;;
52512;SDS011;38422;53.172;6.974;2022-07-04T00:12:08;3.55;;;1.30;;
52512;SDS011;38422;53.172;6.974;2022-07-04T00:14:34;3.60;;;1.20;;
52512;SDS011;38422;53.172;6.974;2022-07-04T00:17:00;1.98;;;0.90;;
52512;SDS011;38422;53.172;6.974;2022-07-04T00:19:25;2.15;;;1.20;;
52512;SDS011;38422;53.172;6.974;2022-07-04T00:21:51;6.47;;;1.10;;
52512;SDS011;38422;53.172;6.974;2022-07-04T00:24:17;2.38;;;1.10;;
52512;SDS011;38422;53.172;6.974;2022-07-04T00:26:42;5.65;;;1.10;;
52512;SDS011;38422;53.172;6.974;2022-07-04T00:29:08;2.40;;;1.30;;
52512;SDS011;38422;53.172;6.974;2022-07-04T00:31:34;2.58;;;1.02;;
52512;SDS011;38422;53.172;6.974;2022-07-04T00:34:00;2.20;;;0.90;;
52512;SDS011;38422;53.172;6.974;2022-07-04T00:36:26;3.50;;;1.02;;
52512;SDS011;38422;53.172;6.974;2022-07-04T00:38:52;2.58;;;1.10;;
52512;SDS011;38422;53.172;6.974;2022-07-04T00:41:18;4.90;;;1.33;;
52512;SDS011;38422;53.172;6.974;2022-07-04T00:43:44;4.05;;;1.30;;
52512;SDS011;38422;53.172;6.974;2022-07-04T00:46:24;4.47;;;1.20;;
52512;SDS011;38422;53.172;6.974;2022-07-04T00:48:49;4.47;;;1.30;;
52512;SDS011;38422;53.172;6.974;2022-07-04T00:51:15;2.97;;;1.20;;
52512;SDS011;38422;53.172;6.974;2022-07-04T00:53:41;2.83;;;1.33;;
52512;SDS011;38422;53.172;6.974;2022-07-04T00:56:07;2.28;;;1.30;;
52512;SDS011;38422;53.172;6.974;2022-07-04T00:58:32;2.45;;;1.20;;
52512;SDS011;38422;53.172;6.974;2022-07-04T01:00:59;3.78;;;1.40;;
52512;SDS011;38422;53.172;6.974;2022-07-04T01:03:24;1.80;;;1.10;;
52512;SDS011;38422;53.172;6.974;2022-07-04T01:05:50;2.40;;;1.10;;
52512;SDS011;38422;53.172;6.974;2022-07-04T01:08:16;2.88;;;1.50;;
52512;SDS011;38422;53.172;6.974;2022-07-04T01:10:42;3.53;;;1.35;;
52512;SDS011;38422;53.172;6.974;2022-07-04T01:13:08;4.07;;;1.40;;
52512;SDS011;38422;53.172;6.974;2022-07-04T01:15:43;2.92;;;1.20;;
52512;SDS011;38422;53.172;6.974;2022-07-04T01:18:08;4.28;;;1.45;;
52512;SDS011;38422;53.172;6.974;2022-07-04T01:20:35;3.38;;;1.33;;
52512;SDS011;38422;53.172;6.974;2022-07-04T01:23:03;2.60;;;1.40;;
52512;SDS011;38422;53.172;6.974;2022-07-04T01:25:29;3.42;;;1.38;;
52512;SDS011;38422;53.172;6.974;2022-07-04T01:27:55;3.80;;;1.60;;
52512;SDS011;38422;53.172;6.974;2022-07-04T01:30:20;4.97;;;1.60;;
52512;SDS011;38422;53.172;6.974;2022-07-04T01:32:46;4.22;;;1.63;;
52512;SDS011;38422;53.172;6.974;2022-07-04T01:35:12;5.97;;;1.85;;
52512;SDS011;38422;53.172;6.974;2022-07-04T01:37:37;5.25;;;1.52;;
52512;SDS011;38422;53.172;6.974;2022-07-04T01:40:03;3.63;;;1.60;;
52512;SDS011;38422;53.172;6.974;2022-07-04T01:42:30;3.57;;;1.67;;
52512;SDS011;38422;53.172;6.974;2022-07-04T01:44:55;5.70;;;1.70;;
52512;SDS011;38422;53.172;6.974;2022-07-04T01:47:21;4.68;;;1.67;;
52512;SDS011;38422;53.172;6.974;2022-07-04T01:49:47;3.13;;;1.65;;
52512;SDS011;38422;53.172;6.974;2022-07-04T01:52:12;4.20;;;1.40;;
52512;SDS011;38422;53.172;6.974;2022-07-04T01:54:40;6.20;;;1.88;;
52512;SDS011;38422;53.172;6.974;2022-07-04T01:57:06;4.72;;;1.52;;
52512;SDS011;38422;53.172;6.974;2022-07-04T01:59:32;4.63;;;1.38;;
52512;SDS011;38422;53.172;6.974;2022-07-04T02:02:16;4.25;;;1.80;;
52512;SDS011;38422;53.172;6.974;2022-07-04T02:04:42;4.28;;;1.60;;
52512;SDS011;38422;53.172;6.974;2022-07-04T02:07:08;3.50;;;1.33;;
52512;SDS011;38422;53.172;6.974;2022-07-04T02:09:33;4.68;;;1.50;;
52512;SDS011;38422;53.172;6.974;2022-07-04T02:11:59;3.60;;;1.48;;
52512;SDS011;38422;53.172;6.974;2022-07-04T02:14:43;4.93;;;1.65;;
52512;SDS011;38422;53.172;6.974;2022-07-04T02:17:10;4.45;;;1.50;;
52512;SDS011;38422;53.172;6.974;2022-07-04T02:19:36;2.47;;;1.55;;
52512;SDS011;38422;53.172;6.974;2022-07-04T02:22:02;5.68;;;1.58;;
52512;SDS011;38422;53.172;6.974;2022-07-04T02:24:28;3.60;;;1.50;;
52512;SDS011;38422;53.172;6.974;2022-07-04T02:26:54;4.63;;;1.65;;
52512;SDS011;38422;53.172;6.974;2022-07-04T02:29:19;3.88;;;1.40;;
52512;SDS011;38422;53.172;6.974;2022-07-04T02:31:45;5.85;;;1.85;;
52512;SDS011;38422;53.172;6.974;2022-07-04T02:34:11;2.88;;;1.40;;
52512;SDS011;38422;53.172;6.974;2022-07-04T02:36:37;3.80;;;1.60;;
52512;SDS011;38422;53.172;6.974;2022-07-04T02:39:03;4.00;;;1.70;;
52512;SDS011;38422;53.172;6.974;2022-07-04T02:41:32;2.88;;;1.40;;
52512;SDS011;38422;53.172;6.974;2022-07-04T02:43:58;3.85;;;1.55;;
52512;SDS011;38422;53.172;6.974;2022-07-04T02:46:24;3.83;;;1.60;;
52512;SDS011;38422;53.172;6.974;2022-07-04T02:48:50;4.05;;;1.70;;
52512;SDS011;38422;53.172;6.974;2022-07-04T02:51:16;2.40;;;1.55;;
52512;SDS011;38422;53.172;6.974;2022-07-04T02:53:42;4.05;;;1.90;;
52512;SDS011;38422;53.172;6.974;2022-07-04T02:56:08;5.75;;;2.05;;
52512;SDS011;38422;53.172;6.974;2022-07-04T02:58:34;5.40;;;1.90;;
52512;SDS011;38422;53.172;6.974;2022-07-04T03:00:59;5.30;;;1.90;;
52512;SDS011;38422;53.172;6.974;2022-07-04T03:03:25;3.53;;;1.90;;
52512;SDS011;38422;53.172;6.974;2022-07-04T03:05:51;6.28;;;2.50;;
52512;SDS011;38422;53.172;6.974;2022-07-04T03:08:18;4.63;;;2.20;;
52512;SDS011;38422;53.172;6.974;2022-07-04T03:10:44;5.70;;;2.17;;
52512;SDS011;38422;53.172;6.974;2022-07-04T03:13:09;6.47;;;2.60;;
52512;SDS011;38422;53.172;6.974;2022-07-04T03:15:35;6.15;;;2.75;;
52512;SDS011;38422;53.172;6.974;2022-07-04T03:18:01;7.00;;;3.03;;
52512;SDS011;38422;53.172;6.974;2022-07-04T03:20:27;7.30;;;3.28;;
52512;SDS011;38422;53.172;6.974;2022-07-04T03:22:52;5.45;;;3.00;;
52512;SDS011;38422;53.172;6.974;2022-07-04T03:25:19;5.88;;;3.33;;
52512;SDS011;38422;53.172;6.974;2022-07-04T03:27:45;4.90;;;3.20;;
52512;SDS011;38422;53.172;6.974;2022-07-04T03:30:11;5.13;;;2.97;;
52512;SDS011;38422;53.172;6.974;2022-07-04T03:32:37;4.35;;;2.30;;
52512;SDS011;38422;53.172;6.974;2022-07-04T03:35:03;8.90;;;2.65;;
52512;SDS011;38422;53.172;6.974;2022-07-04T03:37:30;5.63;;;3.03;;
52512;SDS011;38422;53.172;6.974;2022-07-04T03:39:56;5.43;;;2.50;;
52512;SDS011;38422;53.172;6.974;2022-07-04T03:42:21;4.90;;;2.90;;
52512;SDS011;38422;53.172;6.974;2022-07-04T03:44:47;4.50;;;3.20;;
52512;SDS011;38422;53.172;6.974;2022-07-04T03:47:12;8.20;;;4.18;;
52512;SDS011;38422;53.172;6.974;2022-07-04T03:49:38;5.32;;;3.10;;
52512;SDS011;38422;53.172;6.974;2022-07-04T03:52:04;6.00;;;4.07;;
52512;SDS011;38422;53.172;6.974;2022-07-04T03:54:30;7.75;;;3.95;;
52512;SDS011;38422;53.172;6.974;2022-07-04T03:56:55;4.28;;;3.40;;
52512;SDS011;38422;53.172;6.974;2022-07-04T03:59:21;7.25;;;3.53;;
52512;SDS011;38422;53.172;6.974;2022-07-04T04:01:47;5.00;;;2.92;;
52512;SDS011;38422;53.172;6.974;2022-07-04T04:04:12;4.85;;;2.90;;
52512;SDS011;38422;53.172;6.974;2022-07-04T04:06:56;5.63;;;3.25;;
52512;SDS011;38422;53.172;6.974;2022-07-04T04:09:22;7.82;;;3.13;;
52512;SDS011;38422;53.172;6.974;2022-07-04T04:11:49;6.70;;;3.10;;
52512;SDS011;38422;53.172;6.974;2022-07-04T04:14:18;6.38;;;3.03;;
52512;SDS011;38422;53.172;6.974;2022-07-04T04:16:44;5.47;;;2.90;;
52512;SDS011;38422;53.172;6.974;2022-07-04T04:19:10;6.05;;;2.92;;
52512;SDS011;38422;53.172;6.974;2022-07-04T04:21:36;5.95;;;3.00;;
52512;SDS011;38422;53.172;6.974;2022-07-04T04:24:02;6.90;;;3.03;;
52512;SDS011;38422;53.172;6.974;2022-07-04T04:26:28;8.55;;;3.28;;
52512;SDS011;38422;53.172;6.974;2022-07-04T04:28:54;9.80;;;3.47;;
52512;SDS011;38422;53.172;6.974;2022-07-04T04:31:19;7.35;;;3.22;;
52512;SDS011;38422;53.172;6.974;2022-07-04T04:33:45;6.70;;;3.33;;
52512;SDS011;38422;53.172;6.974;2022-07-04T04:36:11;8.75;;;2.90;;
52512;SDS011;38422;53.172;6.974;2022-07-04T04:38:36;6.45;;;3.40;;
52512;SDS011;38422;53.172;6.974;2022-07-04T04:41:02;5.85;;;3.42;;
52512;SDS011;38422;53.172;6.974;2022-07-04T04:43:28;6.03;;;3.47;;
52512;SDS011;38422;53.172;6.974;2022-07-04T04:45:54;6.07;;;3.20;;
52512;SDS011;38422;53.172;6.974;2022-07-04T04:48:19;6.20;;;3.17;;
52512;SDS011;38422;53.172;6.974;2022-07-04T04:50:45;8.13;;;3.22;;
52512;SDS011;38422;53.172;6.974;2022-07-04T04:53:11;8.63;;;3.30;;
52512;SDS011;38422;53.172;6.974;2022-07-04T04:55:37;6.00;;;3.10;;
52512;SDS011;38422;53.172;6.974;2022-07-04T04:58:03;6.93;;;3.40;;
52512;SDS011;38422;53.172;6.974;2022-07-04T05:00:30;8.13;;;3.40;;
52512;SDS011;38422;53.172;6.974;2022-07-04T05:02:56;6.33;;;3.40;;
52512;SDS011;38422;53.172;6.974;2022-07-04T05:05:22;7.53;;;3.53;;
52512;SDS011;38422;53.172;6.974;2022-07-04T05:07:47;6.13;;;2.97;;
52512;SDS011;38422;53.172;6.974;2022-07-04T05:10:13;5.28;;;2.97;;
52512;SDS011;38422;53.172;6.974;2022-07-04T05:12:42;5.50;;;3.63;;
52512;SDS011;38422;53.172;6.974;2022-07-04T05:15:08;5.28;;;3.35;;
52512;SDS011;38422;53.172;6.974;2022-07-04T05:17:35;6.60;;;3.20;;
52512;SDS011;38422;53.172;6.974;2022-07-04T05:20:01;6.55;;;3.67;;
52512;SDS011;38422;53.172;6.974;2022-07-04T05:22:27;5.95;;;3.50;;
52512;SDS011;38422;53.172;6.974;2022-07-04T05:24:52;6.07;;;3.78;;
52512;SDS011;38422;53.172;6.974;2022-07-04T05:27:18;4.88;;;3.53;;
52512;SDS011;38422;53.172;6.974;2022-07-04T05:29:44;6.25;;;3.67;;
52512;SDS011;38422;53.172;6.974;2022-07-04T05:32:09;6.40;;;3.70;;
52512;SDS011;38422;53.172;6.974;2022-07-04T05:34:35;6.85;;;3.60;;
52512;SDS011;38422;53.172;6.974;2022-07-04T05:37:01;6.28;;;3.53;;
52512;SDS011;38422;53.172;6.974;2022-07-04T05:39:28;6.15;;;3.63;;
52512;SDS011;38422;53.172;6.974;2022-07-04T05:41:54;4.72;;;3.92;;
52512;SDS011;38422;53.172;6.974;2022-07-04T05:44:20;5.03;;;3.63;;
52512;SDS011;38422;53.172;6.974;2022-07-04T05:46:46;6.35;;;3.65;;
52512;SDS011;38422;53.172;6.974;2022-07-04T05:49:12;6.15;;;3.67;;
52512;SDS011;38422;53.172;6.974;2022-07-04T05:51:37;6.00;;;3.55;;
52512;SDS011;38422;53.172;6.974;2022-07-04T05:54:03;5.57;;;3.50;;
52512;SDS011;38422;53.172;6.974;2022-07-04T05:56:29;6.45;;;3.88;;
52512;SDS011;38422;53.172;6.974;2022-07-04T05:58:55;6.53;;;3.90;;
52512;SDS011;38422;53.172;6.974;2022-07-04T06:01:21;6.57;;;3.97;;
52512;SDS011;38422;53.172;6.974;2022-07-04T06:03:47;7.63;;;4.38;;
52512;SDS011;38422;53.172;6.974;2022-07-04T06:06:12;6.43;;;4.22;;
52512;SDS011;38422;53.172;6.974;2022-07-04T06:08:40;7.20;;;4.28;;
52512;SDS011;38422;53.172;6.974;2022-07-04T06:11:06;6.95;;;4.10;;
52512;SDS011;38422;53.172;6.974;2022-07-04T06:13:32;9.18;;;4.43;;
52512;SDS011;38422;53.172;6.974;2022-07-04T06:15:57;8.57;;;4.45;;
52512;SDS011;38422;53.172;6.974;2022-07-04T06:18:23;6.93;;;4.07;;
52512;SDS011;38422;53.172;6.974;2022-07-04T06:20:49;8.13;;;4.30;;
52512;SDS011;38422;53.172;6.974;2022-07-04T06:23:15;8.07;;;3.95;;
52512;SDS011;38422;53.172;6.974;2022-07-04T06:25:40;7.53;;;3.95;;
52512;SDS011;38422;53.172;6.974;2022-07-04T06:28:06;6.63;;;3.75;;
52512;SDS011;38422;53.172;6.974;2022-07-04T06:30:32;6.82;;;3.97;;
52512;SDS011;38422;53.172;6.974;2022-07-04T06:32:57;7.47;;;3.90;;
52512;SDS011;38422;53.172;6.974;2022-07-04T06:35:26;8.43;;;3.60;;
52512;SDS011;38422;53.172;6.974;2022-07-04T06:38:21;5.43;;;3.67;;
52512;SDS011;38422;53.172;6.974;2022-07-04T06:40:48;6.55;;;3.42;;
52512;SDS011;38422;53.172;6.974;2022-07-04T06:43:15;5.75;;;3.28;;
52512;SDS011;38422;53.172;6.974;2022-07-04T06:45:41;7.95;;;3.22;;
52512;SDS011;38422;53.172;6.974;2022-07-04T06:48:08;8.02;;;3.30;;
52512;SDS011;38422;53.172;6.974;2022-07-04T06:50:34;10.10;;;3.50;;
52512;SDS011;38422;53.172;6.974;2022-07-04T06:53:01;10.57;;;2.85;;
52512;SDS011;38422;53.172;6.974;2022-07-04T06:57:53;8.15;;;2.88;;
52512;SDS011;38422;53.172;6.974;2022-07-04T07:00:18;6.65;;;2.92;;
52512;SDS011;38422;53.172;6.974;2022-07-04T07:02:44;9.27;;;3.08;;
52512;SDS011;38422;53.172;6.974;2022-07-04T07:05:10;7.47;;;2.90;;
52512;SDS011;38422;53.172;6.974;2022-07-04T07:07:35;7.15;;;2.88;;
52512;SDS011;38422;53.172;6.974;2022-07-04T07:10:01;7.93;;;2.60;;
52512;SDS011;38422;53.172;6.974;2022-07-04T07:12:28;6.63;;;2.20;;
52512;SDS011;38422;53.172;6.974;2022-07-04T07:14:54;7.47;;;2.30;;
52512;SDS011;38422;53.172;6.974;2022-07-04T07:17:20;8.40;;;2.25;;
52512;SDS011;38422;53.172;6.974;2022-07-04T07:19:46;8.10;;;1.92;;
52512;SDS011;38422;53.172;6.974;2022-07-04T07:22:12;5.70;;;1.80;;
52512;SDS011;38422;53.172;6.974;2022-07-04T07:24:38;8.63;;;1.90;;
52512;SDS011;38422;53.172;6.974;2022-07-04T07:27:04;6.45;;;2.13;;
52512;SDS011;38422;53.172;6.974;2022-07-04T07:29:30;5.45;;;1.65;;
52512;SDS011;38422;53.172;6.974;2022-07-04T07:31:56;3.65;;;1.50;;
52512;SDS011;38422;53.172;6.974;2022-07-04T07:34:22;5.95;;;1.95;;
52512;SDS011;38422;53.172;6.974;2022-07-04T07:36:48;7.60;;;1.85;;
52512;SDS011;38422;53.172;6.974;2022-07-04T07:39:13;4.68;;;1.70;;
52512;SDS011;38422;53.172;6.974;2022-07-04T07:41:39;4.15;;;1.73;;
52512;SDS011;38422;53.172;6.974;2022-07-04T07:44:05;6.30;;;1.70;;
52512;SDS011;38422;53.172;6.974;2022-07-04T07:46:30;6.80;;;1.83;;
52512;SDS011;38422;53.172;6.974;2022-07-04T07:48:56;10.23;;;2.20;;
52512;SDS011;38422;53.172;6.974;2022-07-04T07:51:21;6.68;;;1.95;;
52512;SDS011;38422;53.172;6.974;2022-07-04T07:53:47;8.38;;;1.80;;
52512;SDS011;38422;53.172;6.974;2022-07-04T07:56:13;8.18;;;2.22;;
52512;SDS011;38422;53.172;6.974;2022-07-04T07:58:38;6.45;;;2.00;;
52512;SDS011;38422;53.172;6.974;2022-07-04T08:01:04;6.38;;;2.03;;
52512;SDS011;38422;53.172;6.974;2022-07-04T08:03:30;5.80;;;1.52;;
52512;SDS011;38422;53.172;6.974;2022-07-04T08:06:14;5.22;;;1.58;;
52512;SDS011;38422;53.172;6.974;2022-07-04T08:08:41;7.78;;;1.52;;
52512;SDS011;38422;53.172;6.974;2022-07-04T08:11:08;4.90;;;1.47;;
52512;SDS011;38422;53.172;6.974;2022-07-04T08:13:34;6.22;;;1.80;;
52512;SDS011;38422;53.172;6.974;2022-07-04T08:16:00;7.38;;;2.03;;
52512;SDS011;38422;53.172;6.974;2022-07-04T08:18:26;5.82;;;1.70;;
52512;SDS011;38422;53.172;6.974;2022-07-04T08:20:51;5.43;;;1.73;;
52512;SDS011;38422;53.172;6.974;2022-07-04T08:23:17;5.03;;;1.55;;
52512;SDS011;38422;53.172;6.974;2022-07-04T08:25:42;5.13;;;1.70;;
52512;SDS011;38422;53.172;6.974;2022-07-04T08:28:08;6.15;;;1.50;;
52512;SDS011;38422;53.172;6.974;2022-07-04T08:30:34;3.05;;;0.95;;
52512;SDS011;38422;53.172;6.974;2022-07-04T08:33:00;3.38;;;1.30;;
52512;SDS011;38422;53.172;6.974;2022-07-04T08:35:26;3.85;;;1.13;;
52512;SDS011;38422;53.172;6.974;2022-07-04T08:37:52;5.30;;;1.08;;
52512;SDS011;38422;53.172;6.974;2022-07-04T08:40:24;3.65;;;1.10;;
52512;SDS011;38422;53.172;6.974;2022-07-04T08:42:54;3.78;;;1.17;;
52512;SDS011;38422;53.172;6.974;2022-07-04T08:45:23;4.68;;;1.00;;
52512;SDS011;38422;53.172;6.974;2022-07-04T08:47:51;3.58;;;0.88;;
52512;SDS011;38422;53.172;6.974;2022-07-04T08:50:24;4.18;;;1.02;;
52512;SDS011;38422;53.172;6.974;2022-07-04T08:52:53;3.25;;;1.10;;
52512;SDS011;38422;53.172;6.974;2022-07-04T08:55:23;2.85;;;1.00;;
52512;SDS011;38422;53.172;6.974;2022-07-04T08:58:09;4.35;;;1.10;;
52512;SDS011;38422;53.172;6.974;2022-07-04T09:00:51;3.80;;;1.00;;
52512;SDS011;38422;53.172;6.974;2022-07-04T09:05:44;5.90;;;1.02;;
52512;SDS011;38422;53.172;6.974;2022-07-04T09:08:10;3.90;;;1.10;;
52512;SDS011;38422;53.172;6.974;2022-07-04T09:10:36;5.22;;;1.05;;
52512;SDS011;38422;53.172;6.974;2022-07-04T09:13:03;6.57;;;1.30;;
52512;SDS011;38422;53.172;6.974;2022-07-04T09:15:30;4.72;;;1.52;;
52512;SDS011;38422;53.172;6.974;2022-07-04T09:17:56;4.00;;;0.90;;
52512;SDS011;38422;53.172;6.974;2022-07-04T09:20:23;3.85;;;1.08;;
52512;SDS011;38422;53.172;6.974;2022-07-04T09:22:51;7.00;;;1.63;;
52512;SDS011;38422;53.172;6.974;2022-07-04T09:25:18;5.53;;;1.33;;
52512;SDS011;38422;53.172;6.974;2022-07-04T09:27:45;2.40;;;1.13;;
52512;SDS011;38422;53.172;6.974;2022-07-04T09:30:13;2.95;;;1.00;;
52512;SDS011;38422;53.172;6.974;2022-07-04T09:35:19;3.20;;;1.08;;
52512;SDS011;38422;53.172;6.974;2022-07-04T09:37:50;2.75;;;0.90;;
52512;SDS011;38422;53.172;6.974;2022-07-04T09:40:21;5.55;;;1.15;;
52512;SDS011;38422;53.172;6.974;2022-07-04T09:43:23;2.50;;;0.85;;
52512;SDS011;38422;53.172;6.974;2022-07-04T09:45:57;2.97;;;0.95;;
52512;SDS011;38422;53.172;6.974;2022-07-04T09:48:25;2.47;;;1.00;;
52512;SDS011;38422;53.172;6.974;2022-07-04T09:50:51;3.60;;;1.20;;
52512;SDS011;38422;53.172;6.974;2022-07-04T09:53:16;2.80;;;1.08;;
52512;SDS011;38422;53.172;6.974;2022-07-04T09:55:42;2.53;;;0.60;;
52512;SDS011;38422;53.172;6.974;2022-07-04T09:58:09;3.20;;;0.80;;
52512;SDS011;38422;53.172;6.974;2022-07-04T10:00:37;3.35;;;1.10;;
52512;SDS011;38422;53.172;6.974;2022-07-04T10:05:46;3.55;;;0.80;;
52512;SDS011;38422;53.172;6.974;2022-07-04T10:08:13;4.30;;;1.05;;
52512;SDS011;38422;53.172;6.974;2022-07-04T10:10:39;2.85;;;0.90;;
52512;SDS011;38422;53.172;6.974;2022-07-04T10:13:09;2.17;;;0.63;;
52512;SDS011;38422;53.172;6.974;2022-07-04T10:15:39;2.13;;;0.80;;
52512;SDS011;38422;53.172;6.974;2022-07-04T10:18:07;4.07;;;0.80;;
52512;SDS011;38422;53.172;6.974;2022-07-04T10:20:34;2.67;;;0.90;;
52512;SDS011;38422;53.172;6.974;2022-07-04T10:23:00;2.30;;;0.80;;
52512;SDS011;38422;53.172;6.974;2022-07-04T10:25:27;1.73;;;0.70;;
52512;SDS011;38422;53.172;6.974;2022-07-04T10:27:54;2.42;;;0.70;;
52512;SDS011;38422;53.172;6.974;2022-07-04T10:30:22;2.80;;;0.68;;
52512;SDS011;38422;53.172;6.974;2022-07-04T10:33:00;2.92;;;0.77;;
52512;SDS011;38422;53.172;6.974;2022-07-04T10:38:17;1.77;;;0.80;;
52512;SDS011;38422;53.172;6.974;2022-07-04T10:48:53;2.63;;;1.00;;
52512;SDS011;38422;53.172;6.974;2022-07-04T10:51:42;2.00;;;0.82;;
52512;SDS011;38422;53.172;6.974;2022-07-04T10:59:22;2.05;;;0.63;;
52512;SDS011;38422;53.172;6.974;2022-07-04T11:04:51;1.52;;;0.57;;
52512;SDS011;38422;53.172;6.974;2022-07-04T11:07:17;2.72;;;0.75;;
52512;SDS011;38422;53.172;6.974;2022-07-04T11:09:45;2.10;;;0.80;;
52512;SDS011;38422;53.172;6.974;2022-07-04T11:12:11;1.43;;;0.60;;
52512;SDS011;38422;53.172;6.974;2022-07-04T11:14:43;1.65;;;0.50;;
52512;SDS011;38422;53.172;6.974;2022-07-04T11:19:45;1.83;;;0.70;;
52512;SDS011;38422;53.172;6.974;2022-07-04T11:22:11;2.22;;;0.60;;
52512;SDS011;38422;53.172;6.974;2022-07-04T11:24:46;1.15;;;0.60;;
52512;SDS011;38422;53.172;6.974;2022-07-04T11:27:12;1.20;;;0.50;;
52512;SDS011;38422;53.172;6.974;2022-07-04T11:29:38;2.92;;;0.60;;
52512;SDS011;38422;53.172;6.974;2022-07-04T11:32:13;3.45;;;0.70;;
52512;SDS011;38422;53.172;6.974;2022-07-04T11:34:39;1.17;;;0.60;;
52512;SDS011;38422;53.172;6.974;2022-07-04T11:37:05;2.30;;;0.57;;
52512;SDS011;38422;53.172;6.974;2022-07-04T11:39:31;1.30;;;0.50;;
52512;SDS011;38422;53.172;6.974;2022-07-04T11:41:57;4.00;;;0.73;;
52512;SDS011;38422;53.172;6.974;2022-07-04T11:44:41;2.05;;;0.65;;
52512;SDS011;38422;53.172;6.974;2022-07-04T11:47:38;3.22;;;0.70;;
52512;SDS011;38422;53.172;6.974;2022-07-04T11:50:07;1.85;;;0.75;;
52512;SDS011;38422;53.172;6.974;2022-07-04T11:55:03;1.35;;;0.82;;
52512;SDS011;38422;53.172;6.974;2022-07-04T11:57:32;1.70;;;0.60;;
52512;SDS011;38422;53.172;6.974;2022-07-04T12:00:20;0.82;;;0.50;;
52512;SDS011;38422;53.172;6.974;2022-07-04T12:02:50;1.58;;;0.63;;
52512;SDS011;38422;53.172;6.974;2022-07-04T12:05:16;3.00;;;0.80;;
52512;SDS011;38422;53.172;6.974;2022-07-04T12:10:11;1.52;;;0.50;;
52512;SDS011;38422;53.172;6.974;2022-07-04T12:15:37;1.23;;;0.45;;
52512;SDS011;38422;53.172;6.974;2022-07-04T12:20:44;1.80;;;0.57;;
52512;SDS011;38422;53.172;6.974;2022-07-04T12:23:10;4.15;;;0.88;;
52512;SDS011;38422;53.172;6.974;2022-07-04T12:25:37;2.30;;;0.80;;
52512;SDS011;38422;53.172;6.974;2022-07-04T12:30:38;2.22;;;0.55;;
52512;SDS011;38422;53.172;6.974;2022-07-04T12:33:08;1.20;;;0.55;;
52512;SDS011;38422;53.172;6.974;2022-07-04T12:38:20;4.55;;;0.60;;
52512;SDS011;38422;53.172;6.974;2022-07-04T12:41:08;2.20;;;0.60;;
52512;SDS011;38422;53.172;6.974;2022-07-04T12:46:10;2.45;;;0.70;;
52512;SDS011;38422;53.172;6.974;2022-07-04T12:48:38;1.45;;;0.40;;
52512;SDS011;38422;53.172;6.974;2022-07-04T12:51:11;2.08;;;0.60;;
52512;SDS011;38422;53.172;6.974;2022-07-04T12:53:44;2.00;;;0.50;;
52512;SDS011;38422;53.172;6.974;2022-07-04T12:56:27;1.35;;;0.50;;
52512;SDS011;38422;53.172;6.974;2022-07-04T12:58:56;2.08;;;0.52;;
52512;SDS011;38422;53.172;6.974;2022-07-04T13:01:22;1.25;;;0.38;;
52512;SDS011;38422;53.172;6.974;2022-07-04T13:03:48;2.30;;;0.60;;
52512;SDS011;38422;53.172;6.974;2022-07-04T13:06:14;3.20;;;0.63;;
52512;SDS011;38422;53.172;6.974;2022-07-04T13:08:39;0.90;;;0.40;;
52512;SDS011;38422;53.172;6.974;2022-07-04T13:11:05;1.67;;;0.50;;
52512;SDS011;38422;53.172;6.974;2022-07-04T13:13:49;1.38;;;0.60;;
52512;SDS011;38422;53.172;6.974;2022-07-04T13:16:15;2.70;;;0.67;;
52512;SDS011;38422;53.172;6.974;2022-07-04T13:18:40;2.43;;;0.50;;
52512;SDS011;38422;53.172;6.974;2022-07-04T13:21:06;1.53;;;0.47;;
52512;SDS011;38422;53.172;6.974;2022-07-04T13:23:32;1.33;;;0.50;;
52512;SDS011;38422;53.172;6.974;2022-07-04T13:25:58;2.63;;;0.50;;
52512;SDS011;38422;53.172;6.974;2022-07-04T13:28:23;1.87;;;0.60;;
52512;SDS011;38422;53.172;6.974;2022-07-04T13:30:49;1.13;;;0.50;;
52512;SDS011;38422;53.172;6.974;2022-07-04T13:33:15;1.40;;;0.50;;
52512;SDS011;38422;53.172;6.974;2022-07-04T13:35:40;1.37;;;0.50;;
52512;SDS011;38422;53.172;6.974;2022-07-04T13:38:06;1.07;;;0.43;;
52512;SDS011;38422;53.172;6.974;2022-07-04T13:40:32;1.90;;;0.50;;
52512;SDS011;38422;53.172;6.974;2022-07-04T13:42:58;0.83;;;0.47;;
52512;SDS011;38422;53.172;6.974;2022-07-04T13:45:24;1.70;;;0.50;;
52512;SDS011;38422;53.172;6.974;2022-07-04T13:47:53;1.27;;;0.43;;
52512;SDS011;38422;53.172;6.974;2022-07-04T13:50:20;1.58;;;0.45;;
52512;SDS011;38422;53.172;6.974;2022-07-04T13:52:46;2.15;;;0.50;;
52512;SDS011;38422;53.172;6.974;2022-07-04T13:55:12;1.90;;;0.57;;
52512;SDS011;38422;53.172;6.974;2022-07-04T13:57:38;1.83;;;0.40;;
52512;SDS011;38422;53.172;6.974;2022-07-04T14:00:04;2.10;;;0.53;;
52512;SDS011;38422;53.172;6.974;2022-07-04T14:02:31;2.10;;;0.50;;
52512;SDS011;38422;53.172;6.974;2022-07-04T14:04:56;1.43;;;0.57;;
52512;SDS011;38422;53.172;6.974;2022-07-04T14:07:22;0.93;;;0.50;;
52512;SDS011;38422;53.172;6.974;2022-07-04T14:09:48;2.75;;;0.40;;
52512;SDS011;38422;53.172;6.974;2022-07-04T14:12:14;2.57;;;0.50;;
52512;SDS011;38422;53.172;6.974;2022-07-04T14:14:40;1.33;;;0.40;;
52512;SDS011;38422;53.172;6.974;2022-07-04T14:17:06;1.83;;;0.60;;
52512;SDS011;38422;53.172;6.974;2022-07-04T14:19:32;2.28;;;0.50;;
52512;SDS011;38422;53.172;6.974;2022-07-04T14:21:57;2.77;;;0.53;;
52512;SDS011;38422;53.172;6.974;2022-07-04T14:24:24;1.25;;;0.45;;
52512;SDS011;38422;53.172;6.974;2022-07-04T14:26:53;1.20;;;0.45;;
52512;SDS011;38422;53.172;6.974;2022-07-04T14:29:19;1.05;;;0.30;;
52512;SDS011;38422;53.172;6.974;2022-07-04T14:31:45;2.15;;;0.47;;
52512;SDS011;38422;53.172;6.974;2022-07-04T14:34:10;2.00;;;0.50;;
52512;SDS011;38422;53.172;6.974;2022-07-04T14:36:39;0.82;;;0.40;;
52512;SDS011;38422;53.172;6.974;2022-07-04T14:39:06;1.42;;;0.50;;
52512;SDS011;38422;53.172;6.974;2022-07-04T14:41:32;1.33;;;0.40;;
52512;SDS011;38422;53.172;6.974;2022-07-04T14:43:58;1.23;;;0.37;;
52512;SDS011;38422;53.172;6.974;2022-07-04T14:46:23;1.50;;;0.40;;
52512;SDS011;38422;53.172;6.974;2022-07-04T14:48:49;0.65;;;0.40;;
52512;SDS011;38422;53.172;6.974;2022-07-04T14:51:15;2.13;;;0.50;;
52512;SDS011;38422;53.172;6.974;2022-07-04T14:53:41;0.47;;;0.40;;
52512;SDS011;38422;53.172;6.974;2022-07-04T14:56:07;1.40;;;0.50;;
52512;SDS011;38422;53.172;6.974;2022-07-04T14:58:32;1.67;;;0.40;;
52512;SDS011;38422;53.172;6.974;2022-07-04T15:00:58;1.83;;;0.50;;
52512;SDS011;38422;53.172;6.974;2022-07-04T15:03:24;0.80;;;0.40;;
52512;SDS011;38422;53.172;6.974;2022-07-04T15:05:49;2.13;;;0.60;;
52512;SDS011;38422;53.172;6.974;2022-07-04T15:08:15;1.00;;;0.30;;
52512;SDS011;38422;53.172;6.974;2022-07-04T15:10:41;1.63;;;0.37;;
52512;SDS011;38422;53.172;6.974;2022-07-04T15:13:06;1.73;;;0.47;;
52512;SDS011;38422;53.172;6.974;2022-07-04T15:15:32;1.27;;;0.40;;
52512;SDS011;38422;53.172;6.974;2022-07-04T15:17:58;2.15;;;0.50;;
52512;SDS011;38422;53.172;6.974;2022-07-04T15:20:24;1.13;;;0.40;;
52512;SDS011;38422;53.172;6.974;2022-07-04T15:23:08;1.02;;;0.40;;
52512;SDS011;38422;53.172;6.974;2022-07-04T15:25:53;1.63;;;0.40;;
52512;SDS011;38422;53.172;6.974;2022-07-04T15:28:18;1.50;;;0.40;;
52512;SDS011;38422;53.172;6.974;2022-07-04T15:30:44;1.27;;;0.40;;
52512;SDS011;38422;53.172;6.974;2022-07-04T15:33:10;1.53;;;0.40;;
52512;SDS011;38422;53.172;6.974;2022-07-04T15:35:42;0.68;;;0.38;;
52512;SDS011;38422;53.172;6.974;2022-07-04T15:38:09;1.63;;;0.40;;
52512;SDS011;38422;53.172;6.974;2022-07-04T15:40:35;1.38;;;0.40;;